sensor_id;sensor_type;location;lat;lon;timestamp;pressure;altitude;pressure_sealevel;temperature;humidity
20105;BME280;10212;42.714;23.310;2022-09-09T00:17:01;95414.59;;;16.48;78.08
20105;BME280;10212;42.714;23.310;2022-09-09T00:22:19;95406.03;;;16.41;78.52
20105;BME280;10212;42.714;23.310;2022-09-09T00:27:31;95386.66;;;16.47;78.67
20105;BME280;10212;42.714;23.310;2022-09-09T00:32:33;95380.50;;;16.29;79.31
20105;BME280;10212;42.714;23.310;2022-09-09T00:37:35;95385.34;;;16.32;79.79
20105;BME280;10212;42.714;23.310;2022-09-09T00:42:43;95378.81;;;16.23;79.74
20105;BME280;10212;42.714;23.310;2022-09-09T00:47:46;95369.88;;;16.24;79.35
20105;BME280;10212;42.714;23.310;2022-09-09T00:57:52;95376.34;;;16.45;78.62
20105;BME280;10212;42.714;23.310;2022-09-09T01:03:22;95370.94;;;16.23;79.18
20105;BME280;10212;42.714;23.310;2022-09-09T01:08:47;95376.34;;;16.04;79.91
20105;BME280;10212;42.714;23.310;2022-09-09T01:14:00;95373.78;;;15.85;81.20
20105;BME280;10212;42.714;23.310;2022-09-09T01:19:02;95387.06;;;15.66;82.39
20105;BME280;10212;42.714;23.310;2022-09-09T01:29:16;95376.31;;;15.68;82.64
20105;BME280;10212;42.714;23.310;2022-09-09T01:34:16;95378.94;;;15.68;82.24
20105;BME280;10212;42.714;23.310;2022-09-09T01:39:17;95390.16;;;15.75;82.03
20105;BME280;10212;42.714;23.310;2022-09-09T01:44:19;95399.84;;;15.75;81.91
20105;BME280;10212;42.714;23.310;2022-09-09T01:49:19;95393.25;;;15.72;82.47
20105;BME280;10212;42.714;23.310;2022-09-09T01:54:22;95403.41;;;15.69;82.66
20105;BME280;10212;42.714;23.310;2022-09-09T01:59:57;95405.47;;;15.66;83.07
20105;BME280;10212;42.714;23.310;2022-09-09T02:10:21;95396.88;;;15.59;84.96
20105;BME280;10212;42.714;23.310;2022-09-09T02:15:33;95375.72;;;15.54;85.24
20105;BME280;10212;42.714;23.310;2022-09-09T02:20:37;95376.84;;;15.34;85.98
20105;BME280;10212;42.714;23.310;2022-09-09T02:25:40;95382.19;;;15.27;86.77
20105;BME280;10212;42.714;23.310;2022-09-09T02:36:31;95393.91;;;15.13;87.83
20105;BME280;10212;42.714;23.310;2022-09-09T02:41:34;95403.44;;;15.26;86.33
20105;BME280;10212;42.714;23.310;2022-09-09T02:47:10;95408.25;;;15.29;86.30
20105;BME280;10212;42.714;23.310;2022-09-09T02:52:18;95399.00;;;15.26;85.83
20105;BME280;10212;42.714;23.310;2022-09-09T02:57:26;95403.44;;;15.26;86.53
20105;BME280;10212;42.714;23.310;2022-09-09T03:02:28;95403.53;;;15.19;86.88
20105;BME280;10212;42.714;23.310;2022-09-09T03:07:28;95405.94;;;15.21;85.67
20105;BME280;10212;42.714;23.310;2022-09-09T03:12:29;95404.31;;;15.19;85.00
20105;BME280;10212;42.714;23.310;2022-09-09T03:17:30;95408.53;;;15.09;86.38
20105;BME280;10212;42.714;23.310;2022-09-09T03:22:30;95405.06;;;14.96;87.04
20105;BME280;10212;42.714;23.310;2022-09-09T03:27:31;95396.25;;;14.90;87.75
20105;BME280;10212;42.714;23.310;2022-09-09T03:32:32;95401.84;;;14.94;87.89
20105;BME280;10212;42.714;23.310;2022-09-09T03:37:33;95405.00;;;14.84;87.88
20105;BME280;10212;42.714;23.310;2022-09-09T03:42:33;95391.94;;;14.77;88.71
20105;BME280;10212;42.714;23.310;2022-09-09T03:47:37;95410.47;;;14.82;88.69
20105;BME280;10212;42.714;23.310;2022-09-09T03:52:38;95402.88;;;14.74;89.01
20105;BME280;10212;42.714;23.310;2022-09-09T03:57:41;95408.28;;;14.79;89.35
20105;BME280;10212;42.714;23.310;2022-09-09T04:02:41;95412.88;;;14.84;88.69
20105;BME280;10212;42.714;23.310;2022-09-09T04:07:43;95417.75;;;14.80;88.70
20105;BME280;10212;42.714;23.310;2022-09-09T04:12:44;95405.94;;;14.90;88.66
20105;BME280;10212;42.714;23.310;2022-09-09T04:17:44;95402.97;;;14.86;88.88
20105;BME280;10212;42.714;23.310;2022-09-09T04:22:45;95402.81;;;14.81;88.87
20105;BME280;10212;42.714;23.310;2022-09-09T04:27:47;95409.16;;;14.73;89.53
20105;BME280;10212;42.714;23.310;2022-09-09T04:32:56;95412.00;;;14.90;89.22
20105;BME280;10212;42.714;23.310;2022-09-09T04:37:56;95415.22;;;14.92;89.04
20105;BME280;10212;42.714;23.310;2022-09-09T04:42:58;95414.41;;;14.92;88.72
20105;BME280;10212;42.714;23.310;2022-09-09T04:47:58;95413.31;;;15.00;88.29
20105;BME280;10212;42.714;23.310;2022-09-09T04:53:00;95406.41;;;15.17;87.79
20105;BME280;10212;42.714;23.310;2022-09-09T04:58:05;95394.41;;;15.34;86.99
20105;BME280;10212;42.714;23.310;2022-09-09T05:03:07;95406.19;;;15.31;87.34
20105;BME280;10212;42.714;23.310;2022-09-09T05:08:09;95394.91;;;15.42;86.76
20105;BME280;10212;42.714;23.310;2022-09-09T05:13:09;95382.25;;;15.63;83.84
20105;BME280;10212;42.714;23.310;2022-09-09T05:18:11;95401.56;;;15.69;82.86
20105;BME280;10212;42.714;23.310;2022-09-09T05:23:12;95387.97;;;15.84;81.95
20105;BME280;10212;42.714;23.310;2022-09-09T05:28:13;95386.25;;;16.14;80.28
20105;BME280;10212;42.714;23.310;2022-09-09T05:33:14;95387.41;;;16.18;80.33
20105;BME280;10212;42.714;23.310;2022-09-09T05:38:15;95387.66;;;16.17;79.95
20105;BME280;10212;42.714;23.310;2022-09-09T05:43:15;95388.88;;;16.26;79.45
20105;BME280;10212;42.714;23.310;2022-09-09T05:48:21;95390.59;;;16.32;78.69
20105;BME280;10212;42.714;23.310;2022-09-09T05:53:32;95393.66;;;16.29;79.46
20105;BME280;10212;42.714;23.310;2022-09-09T05:58:34;95400.28;;;16.44;79.51
20105;BME280;10212;42.714;23.310;2022-09-09T06:03:36;95395.31;;;16.59;77.91
20105;BME280;10212;42.714;23.310;2022-09-09T06:08:39;95403.31;;;16.77;77.60
20105;BME280;10212;42.714;23.310;2022-09-09T06:13:39;95405.97;;;17.23;76.76
20105;BME280;10212;42.714;23.310;2022-09-09T06:18:41;95397.81;;;17.24;74.61
20105;BME280;10212;42.714;23.310;2022-09-09T06:23:42;95410.22;;;17.24;74.99
20105;BME280;10212;42.714;23.310;2022-09-09T06:28:49;95408.25;;;17.31;75.49
20105;BME280;10212;42.714;23.310;2022-09-09T06:33:51;95414.16;;;17.56;72.92
20105;BME280;10212;42.714;23.310;2022-09-09T06:38:52;95395.84;;;17.83;72.54
20105;BME280;10212;42.714;23.310;2022-09-09T06:43:52;95390.97;;;17.92;71.26
20105;BME280;10212;42.714;23.310;2022-09-09T06:48:54;95391.25;;;18.13;70.34
20105;BME280;10212;42.714;23.310;2022-09-09T06:54:00;95403.75;;;18.18;69.13
20105;BME280;10212;42.714;23.310;2022-09-09T06:59:04;95410.88;;;18.40;69.20
20105;BME280;10212;42.714;23.310;2022-09-09T07:04:05;95415.69;;;18.43;69.46
20105;BME280;10212;42.714;23.310;2022-09-09T07:09:09;95407.56;;;18.72;66.36
20105;BME280;10212;42.714;23.310;2022-09-09T07:14:11;95395.06;;;18.90;66.28
20105;BME280;10212;42.714;23.310;2022-09-09T07:19:15;95397.13;;;19.10;65.44
20105;BME280;10212;42.714;23.310;2022-09-09T07:24:15;95397.00;;;19.22;64.98
20105;BME280;10212;42.714;23.310;2022-09-09T07:29:16;95388.38;;;19.32;64.43
20105;BME280;10212;42.714;23.310;2022-09-09T07:34:17;95384.06;;;19.59;63.18
20105;BME280;10212;42.714;23.310;2022-09-09T07:39:18;95383.47;;;19.84;62.15
20105;BME280;10212;42.714;23.310;2022-09-09T07:44:21;95386.59;;;20.19;60.90
20105;BME280;10212;42.714;23.310;2022-09-09T07:49:42;95393.06;;;20.39;58.87
20105;BME280;10212;42.714;23.310;2022-09-09T07:54:53;95387.03;;;20.65;58.74
20105;BME280;10212;42.714;23.310;2022-09-09T07:59:54;95391.69;;;21.01;58.54
20105;BME280;10212;42.714;23.310;2022-09-09T08:04:55;95386.69;;;21.36;56.84
20105;BME280;10212;42.714;23.310;2022-09-09T08:09:56;95387.50;;;21.41;55.92
20105;BME280;10212;42.714;23.310;2022-09-09T08:14:57;95385.91;;;21.56;57.17
20105;BME280;10212;42.714;23.310;2022-09-09T08:19:58;95383.78;;;21.74;55.91
20105;BME280;10212;42.714;23.310;2022-09-09T08:25:03;95382.16;;;22.09;54.35
20105;BME280;10212;42.714;23.310;2022-09-09T08:30:07;95378.81;;;22.49;54.73
20105;BME280;10212;42.714;23.310;2022-09-09T08:35:08;95379.31;;;22.67;53.01
20105;BME280;10212;42.714;23.310;2022-09-09T08:40:18;95381.81;;;22.93;51.83
20105;BME280;10212;42.714;23.310;2022-09-09T08:45:24;95367.13;;;23.06;52.40
20105;BME280;10212;42.714;23.310;2022-09-09T08:50:38;95356.09;;;23.23;51.63
20105;BME280;10212;42.714;23.310;2022-09-09T08:55:50;95360.81;;;23.31;52.88
20105;BME280;10212;42.714;23.310;2022-09-09T09:11:13;95364.38;;;23.56;51.03
20105;BME280;10212;42.714;23.310;2022-09-09T09:16:40;95350.78;;;23.88;50.49
20105;BME280;10212;42.714;23.310;2022-09-09T09:21:46;95358.84;;;24.07;49.82
20105;BME280;10212;42.714;23.310;2022-09-09T09:26:49;95351.91;;;24.06;50.34
20105;BME280;10212;42.714;23.310;2022-09-09T09:31:55;95359.63;;;24.07;50.06
20105;BME280;10212;42.714;23.310;2022-09-09T09:36:59;95351.84;;;24.41;50.02
20105;BME280;10212;42.714;23.310;2022-09-09T09:42:16;95347.13;;;24.76;48.86
20105;BME280;10212;42.714;23.310;2022-09-09T09:47:22;95331.97;;;25.10;48.48
20105;BME280;10212;42.714;23.310;2022-09-09T09:52:26;95331.19;;;24.90;49.16
20105;BME280;10212;42.714;23.310;2022-09-09T09:57:27;95326.19;;;24.84;48.90
20105;BME280;10212;42.714;23.310;2022-09-09T10:02:38;95319.50;;;24.86;48.24
20105;BME280;10212;42.714;23.310;2022-09-09T10:07:39;95327.66;;;24.95;49.41
20105;BME280;10212;42.714;23.310;2022-09-09T10:12:55;95333.28;;;24.74;49.07
20105;BME280;10212;42.714;23.310;2022-09-09T10:29:15;95339.34;;;24.36;49.72
20105;BME280;10212;42.714;23.310;2022-09-09T10:39:39;95341.22;;;24.36;49.81
20105;BME280;10212;42.714;23.310;2022-09-09T10:55:24;95344.75;;;24.50;50.11
20105;BME280;10212;42.714;23.310;2022-09-09T11:00:39;95344.41;;;24.57;50.24
20105;BME280;10212;42.714;23.310;2022-09-09T11:05:47;95335.78;;;24.46;50.34
20105;BME280;10212;42.714;23.310;2022-09-09T11:11:03;95342.84;;;24.56;50.41
20105;BME280;10212;42.714;23.310;2022-09-09T11:21:28;95324.28;;;24.26;52.09
20105;BME280;10212;42.714;23.310;2022-09-09T11:26:55;95320.25;;;24.48;52.00
20105;BME280;10212;42.714;23.310;2022-09-09T11:37:35;95293.28;;;24.74;51.74
20105;BME280;10212;42.714;23.310;2022-09-09T11:42:38;95278.84;;;24.75;51.34
20105;BME280;10212;42.714;23.310;2022-09-09T11:47:38;95268.69;;;24.77;51.58
20105;BME280;10212;42.714;23.310;2022-09-09T11:52:47;95248.31;;;24.67;52.33
20105;BME280;10212;42.714;23.310;2022-09-09T11:57:58;95254.13;;;24.89;52.05
20105;BME280;10212;42.714;23.310;2022-09-09T12:02:59;95258.03;;;25.30;51.15
20105;BME280;10212;42.714;23.310;2022-09-09T12:08:02;95253.91;;;25.38;51.20
20105;BME280;10212;42.714;23.310;2022-09-09T12:13:28;95241.44;;;25.61;50.72
20105;BME280;10212;42.714;23.310;2022-09-09T12:34:33;95223.47;;;25.95;51.10
20105;BME280;10212;42.714;23.310;2022-09-09T12:39:59;95214.78;;;25.89;51.64
20105;BME280;10212;42.714;23.310;2022-09-09T12:50:03;95205.38;;;25.92;51.08
20105;BME280;10212;42.714;23.310;2022-09-09T12:55:06;95204.66;;;26.00;51.13
20105;BME280;10212;42.714;23.310;2022-09-09T13:00:19;95194.56;;;25.97;51.38
20105;BME280;10212;42.714;23.310;2022-09-09T13:05:31;95192.59;;;26.03;51.65
20105;BME280;10212;42.714;23.310;2022-09-09T13:15:57;95193.53;;;26.21;50.94
20105;BME280;10212;42.714;23.310;2022-09-09T13:20:59;95178.16;;;26.41;49.57
20105;BME280;10212;42.714;23.310;2022-09-09T13:26:02;95169.38;;;26.27;50.35
20105;BME280;10212;42.714;23.310;2022-09-09T13:31:18;95166.59;;;26.32;49.69
20105;BME280;10212;42.714;23.310;2022-09-09T13:36:31;95161.94;;;26.23;49.89
20105;BME280;10212;42.714;23.310;2022-09-09T13:41:36;95163.91;;;26.09;50.46
20105;BME280;10212;42.714;23.310;2022-09-09T13:46:43;95151.53;;;25.99;51.37
20105;BME280;10212;42.714;23.310;2022-09-09T13:51:47;95147.94;;;26.18;50.73
20105;BME280;10212;42.714;23.310;2022-09-09T13:56:48;95142.03;;;26.30;50.68
20105;BME280;10212;42.714;23.310;2022-09-09T14:01:50;95139.78;;;26.60;49.32
20105;BME280;10212;42.714;23.310;2022-09-09T14:06:53;95132.94;;;26.77;48.31
20105;BME280;10212;42.714;23.310;2022-09-09T14:11:54;95131.00;;;26.68;47.63
20105;BME280;10212;42.714;23.310;2022-09-09T14:16:55;95121.38;;;26.58;47.46
20105;BME280;10212;42.714;23.310;2022-09-09T14:21:56;95128.72;;;26.53;48.07
20105;BME280;10212;42.714;23.310;2022-09-09T14:26:57;95114.25;;;26.54;46.45
20105;BME280;10212;42.714;23.310;2022-09-09T14:31:57;95117.63;;;26.68;48.29
20105;BME280;10212;42.714;23.310;2022-09-09T14:36:59;95131.63;;;26.65;49.77
20105;BME280;10212;42.714;23.310;2022-09-09T14:41:59;95116.28;;;26.34;50.50
20105;BME280;10212;42.714;23.310;2022-09-09T14:47:00;95122.34;;;26.03;52.15
20105;BME280;10212;42.714;23.310;2022-09-09T14:52:01;95126.47;;;25.86;52.41
20105;BME280;10212;42.714;23.310;2022-09-09T14:57:01;95125.47;;;25.53;53.37
20105;BME280;10212;42.714;23.310;2022-09-09T15:02:02;95130.72;;;25.59;53.48
20105;BME280;10212;42.714;23.310;2022-09-09T15:07:04;95135.16;;;25.49;53.62
20105;BME280;10212;42.714;23.310;2022-09-09T15:12:04;95137.63;;;25.60;52.81
20105;BME280;10212;42.714;23.310;2022-09-09T15:17:05;95139.16;;;25.66;52.67
20105;BME280;10212;42.714;23.310;2022-09-09T15:22:05;95144.16;;;25.53;52.28
20105;BME280;10212;42.714;23.310;2022-09-09T15:27:07;95135.84;;;25.55;52.38
20105;BME280;10212;42.714;23.310;2022-09-09T15:32:08;95141.31;;;25.50;53.15
20105;BME280;10212;42.714;23.310;2022-09-09T15:37:12;95138.25;;;25.28;53.77
20105;BME280;10212;42.714;23.310;2022-09-09T15:42:15;95134.34;;;24.92;54.42
20105;BME280;10212;42.714;23.310;2022-09-09T15:47:15;95125.31;;;24.74;54.96
20105;BME280;10212;42.714;23.310;2022-09-09T15:52:16;95127.63;;;24.48;55.55
20105;BME280;10212;42.714;23.310;2022-09-09T15:57:17;95120.84;;;24.36;55.97
20105;BME280;10212;42.714;23.310;2022-09-09T16:02:17;95122.50;;;24.18;56.64
20105;BME280;10212;42.714;23.310;2022-09-09T16:07:18;95125.41;;;23.97;57.44
20105;BME280;10212;42.714;23.310;2022-09-09T16:12:20;95128.28;;;23.81;58.31
20105;BME280;10212;42.714;23.310;2022-09-09T16:17:20;95127.22;;;23.82;57.63
20105;BME280;10212;42.714;23.310;2022-09-09T16:22:21;95120.56;;;23.60;59.38
20105;BME280;10212;42.714;23.310;2022-09-09T16:27:21;95120.19;;;23.48;59.63
20105;BME280;10212;42.714;23.310;2022-09-09T16:32:23;95107.03;;;23.32;61.23
20105;BME280;10212;42.714;23.310;2022-09-09T16:37:24;95119.44;;;23.18;61.53
20105;BME280;10212;42.714;23.310;2022-09-09T16:42:24;95129.88;;;23.33;61.16
20105;BME280;10212;42.714;23.310;2022-09-09T16:47:25;95126.94;;;23.35;61.21
20105;BME280;10212;42.714;23.310;2022-09-09T16:52:26;95120.50;;;23.17;62.62
20105;BME280;10212;42.714;23.310;2022-09-09T16:57:27;95129.78;;;23.19;63.93
20105;BME280;10212;42.714;23.310;2022-09-09T17:02:30;95116.38;;;23.05;64.37
20105;BME280;10212;42.714;23.310;2022-09-09T17:07:31;95116.63;;;22.79;65.77
20105;BME280;10212;42.714;23.310;2022-09-09T17:12:32;95130.81;;;22.69;66.05
20105;BME280;10212;42.714;23.310;2022-09-09T17:17:33;95134.03;;;22.61;67.32
20105;BME280;10212;42.714;23.310;2022-09-09T17:22:33;95137.94;;;22.39;68.08
20105;BME280;10212;42.714;23.310;2022-09-09T17:27:35;95135.28;;;22.39;68.61
20105;BME280;10212;42.714;23.310;2022-09-09T17:32:35;95146.28;;;22.22;68.37
20105;BME280;10212;42.714;23.310;2022-09-09T17:37:36;95150.19;;;22.35;67.37
20105;BME280;10212;42.714;23.310;2022-09-09T17:42:37;95162.75;;;22.19;68.07
20105;BME280;10212;42.714;23.310;2022-09-09T17:47:37;95156.44;;;22.14;67.84
20105;BME280;10212;42.714;23.310;2022-09-09T17:52:39;95171.47;;;22.29;67.55
20105;BME280;10212;42.714;23.310;2022-09-09T17:57:41;95170.78;;;22.08;69.18
20105;BME280;10212;42.714;23.310;2022-09-09T18:02:42;95185.25;;;21.81;70.38
20105;BME280;10212;42.714;23.310;2022-09-09T18:07:43;95186.34;;;21.69;71.06
20105;BME280;10212;42.714;23.310;2022-09-09T18:12:43;95192.22;;;21.61;71.11
20105;BME280;10212;42.714;23.310;2022-09-09T18:17:44;95201.25;;;21.55;72.10
20105;BME280;10212;42.714;23.310;2022-09-09T18:22:44;95220.34;;;21.57;71.66
20105;BME280;10212;42.714;23.310;2022-09-09T18:27:45;95210.78;;;21.66;70.64
20105;BME280;10212;42.714;23.310;2022-09-09T18:32:48;95222.44;;;21.65;70.16
20105;BME280;10212;42.714;23.310;2022-09-09T18:37:49;95233.31;;;21.64;70.21
20105;BME280;10212;42.714;23.310;2022-09-09T18:42:49;95235.97;;;21.64;70.11
20105;BME280;10212;42.714;23.310;2022-09-09T18:47:50;95233.59;;;21.67;69.47
20105;BME280;10212;42.714;23.310;2022-09-09T18:52:50;95232.53;;;21.68;71.77
20105;BME280;10212;42.714;23.310;2022-09-09T18:57:52;95217.94;;;21.66;71.58
20105;BME280;10212;42.714;23.310;2022-09-09T19:02:52;95221.44;;;21.45;73.22
20105;BME280;10212;42.714;23.310;2022-09-09T19:07:53;95219.03;;;21.44;72.33
20105;BME280;10212;42.714;23.310;2022-09-09T19:12:53;95220.94;;;21.38;72.96
20105;BME280;10212;42.714;23.310;2022-09-09T19:17:54;95216.66;;;21.48;71.84
20105;BME280;10212;42.714;23.310;2022-09-09T19:22:56;95204.78;;;21.35;71.90
20105;BME280;10212;42.714;23.310;2022-09-09T19:27:56;95213.00;;;21.33;72.15
20105;BME280;10212;42.714;23.310;2022-09-09T19:32:58;95209.81;;;21.36;72.74
20105;BME280;10212;42.714;23.310;2022-09-09T19:37:58;95196.56;;;21.31;71.94
20105;BME280;10212;42.714;23.310;2022-09-09T19:43:00;95197.63;;;21.25;72.23
20105;BME280;10212;42.714;23.310;2022-09-09T19:48:01;95197.88;;;21.23;72.77
20105;BME280;10212;42.714;23.310;2022-09-09T19:53:01;95192.59;;;21.18;72.76
20105;BME280;10212;42.714;23.310;2022-09-09T19:58:03;95176.69;;;21.13;72.53
20105;BME280;10212;42.714;23.310;2022-09-09T20:03:03;95173.25;;;21.07;73.16
20105;BME280;10212;42.714;23.310;2022-09-09T20:08:04;95166.38;;;21.06;72.31
20105;BME280;10212;42.714;23.310;2022-09-09T20:13:04;95160.00;;;20.91;71.15
20105;BME280;10212;42.714;23.310;2022-09-09T20:18:05;95155.22;;;20.93;71.56
20105;BME280;10212;42.714;23.310;2022-09-09T20:23:06;95162.94;;;20.84;71.24
20105;BME280;10212;42.714;23.310;2022-09-09T20:28:08;95160.56;;;20.78;70.52
20105;BME280;10212;42.714;23.310;2022-09-09T20:33:08;95172.47;;;20.80;69.40
20105;BME280;10212;42.714;23.310;2022-09-09T20:38:11;95167.44;;;20.79;69.09
20105;BME280;10212;42.714;23.310;2022-09-09T20:43:11;95169.03;;;20.80;68.95
20105;BME280;10212;42.714;23.310;2022-09-09T20:48:12;95164.78;;;20.73;70.21
20105;BME280;10212;42.714;23.310;2022-09-09T20:53:13;95170.09;;;20.73;68.98
20105;BME280;10212;42.714;23.310;2022-09-09T20:58:14;95167.97;;;20.70;68.55
20105;BME280;10212;42.714;23.310;2022-09-09T21:03:15;95170.63;;;20.60;71.98
20105;BME280;10212;42.714;23.310;2022-09-09T21:08:15;95182.25;;;20.48;71.07
20105;BME280;10212;42.714;23.310;2022-09-09T21:13:16;95179.06;;;20.31;71.36
20105;BME280;10212;42.714;23.310;2022-09-09T21:18:17;95178.28;;;20.20;71.45
20105;BME280;10212;42.714;23.310;2022-09-09T21:23:18;95188.59;;;20.16;71.28
20105;BME280;10212;42.714;23.310;2022-09-09T21:28:19;95174.81;;;20.14;71.97
20105;BME280;10212;42.714;23.310;2022-09-09T21:33:23;95175.81;;;19.97;72.95
20105;BME280;10212;42.714;23.310;2022-09-09T21:38:24;95180.00;;;19.83;73.55
20105;BME280;10212;42.714;23.310;2022-09-09T21:43:25;95189.22;;;19.75;74.37
20105;BME280;10212;42.714;23.310;2022-09-09T21:48:25;95188.63;;;19.57;76.39
20105;BME280;10212;42.714;23.310;2022-09-09T21:53:26;95183.34;;;19.57;76.29
20105;BME280;10212;42.714;23.310;2022-09-09T21:58:27;95174.53;;;19.41;77.20
20105;BME280;10212;42.714;23.310;2022-09-09T22:03:27;95172.38;;;19.33;77.43
20105;BME280;10212;42.714;23.310;2022-09-09T22:08:28;95173.94;;;19.28;77.99
20105;BME280;10212;42.714;23.310;2022-09-09T22:13:29;95170.19;;;19.19;79.06
20105;BME280;10212;42.714;23.310;2022-09-09T22:18:29;95164.19;;;19.29;78.34
20105;BME280;10212;42.714;23.310;2022-09-09T22:23:31;95167.47;;;19.09;79.99
20105;BME280;10212;42.714;23.310;2022-09-09T22:28:32;95171.69;;;19.04;80.28
20105;BME280;10212;42.714;23.310;2022-09-09T22:33:33;95167.16;;;19.05;80.46
20105;BME280;10212;42.714;23.310;2022-09-09T22:38:35;95165.34;;;19.11;80.65
20105;BME280;10212;42.714;23.310;2022-09-09T22:43:35;95167.00;;;19.12;80.54
20105;BME280;10212;42.714;23.310;2022-09-09T22:48:37;95156.19;;;19.19;80.52
20105;BME280;10212;42.714;23.310;2022-09-09T22:53:43;95157.50;;;19.21;80.57
20105;BME280;10212;42.714;23.310;2022-09-09T22:58:45;95149.63;;;19.26;80.94
20105;BME280;10212;42.714;23.310;2022-09-09T23:03:47;95145.94;;;19.27;81.32
20105;BME280;10212;42.714;23.310;2022-09-09T23:08:53;95148.28;;;19.24;81.66
20105;BME280;10212;42.714;23.310;2022-09-09T23:13:59;95153.56;;;19.24;82.10
20105;BME280;10212;42.714;23.310;2022-09-09T23:19:00;95157.63;;;19.42;81.50
20105;BME280;10212;42.714;23.310;2022-09-09T23:24:01;95147.53;;;19.34;82.06
20105;BME280;10212;42.714;23.310;2022-09-09T23:29:02;95137.47;;;19.31;82.48
20105;BME280;10212;42.714;23.310;2022-09-09T23:34:04;95130.09;;;19.33;82.73
20105;BME280;10212;42.714;23.310;2022-09-09T23:39:06;95119.53;;;19.38;82.29
20105;BME280;10212;42.714;23.310;2022-09-09T23:44:07;95118.19;;;19.30;83.11
20105;BME280;10212;42.714;23.310;2022-09-09T23:49:08;95113.63;;;19.15;84.06
20105;BME280;10212;42.714;23.310;2022-09-09T23:54:09;95112.81;;;19.14;84.23
20105;BME280;10212;42.714;23.310;2022-09-09T23:59:10;95120.44;;;19.11;84.37
